Main page
METAR-TAF:

METAR-TAF

Airports :

Sharjah International Airport

Sharjah, United Arab Emirates

latitude: 25-20N, longitude: 055-31E, elevation: 35 m

Current weather observation

The report was made 21 minutes ago, at 21:00 UTC
Wind 2 kt from the East/Southeast
Temperature 18°C
Humidity 45%
Pressure 1014 hPa
Visibility 10 km or more
no clouds below 1500 m and no cumulonimbus

METAR: OMSJ 112100Z 12002KT CAVOK 18/06 Q1014 NOSIG

Time: 01:21 (21:21 UTC)

Forecast

The report was made 4 hours and 27 minutes ago, at 16:54 UTC
Forecast valid from 11 at 18 UTC to 13 at 00 UTC
Wind 7 kt from the East/Southeast
Visibility 10 km or more
no clouds below 1500 m and no cumulonimbus
Becoming
from 12 at 10 UTC to 12 at 12 UTC
Wind 10 kt from the North
Becoming
from 12 at 15 UTC to 12 at 17 UTC
Wind 5 kt from the East

TAF: OMSJ 111654Z 1118/1300 12007KT CAVOK BECMG 1210/1212 01010KT BECMG 1215/1217 10005KT

Weather observations and forecasts of more than 4000 airports (METAR and TAF reports).

The available stations are represented by yellow and red dots on the map.

Hover mouse over dot to see the name of the station.

Then click to see weather observations and forecasts.

To change the map : click on the green buttons with a black cross to zoom in, on the green button with a dash to zoom out, or on the green arrows for adjacent maps.


METAR-TAF: